sensor_id;sensor_type;location;lat;lon;timestamp;P1;durP1;ratioP1;P2;durP2;ratioP2
10343;SDS011;5217;43.960;10.954;2024-02-21T00:02:25;5.30;;;4.80;;
10343;SDS011;5217;43.960;10.954;2024-02-21T00:04:54;5.23;;;4.70;;
10343;SDS011;5217;43.960;10.954;2024-02-21T00:07:22;5.47;;;4.97;;
10343;SDS011;5217;43.960;10.954;2024-02-21T00:09:51;5.33;;;4.83;;
10343;SDS011;5217;43.960;10.954;2024-02-21T00:12:19;5.23;;;4.70;;
10343;SDS011;5217;43.960;10.954;2024-02-21T00:14:47;5.30;;;4.80;;
10343;SDS011;5217;43.960;10.954;2024-02-21T00:17:16;4.90;;;4.50;;
10343;SDS011;5217;43.960;10.954;2024-02-21T00:19:45;5.17;;;4.77;;
10343;SDS011;5217;43.960;10.954;2024-02-21T00:22:14;4.80;;;4.40;;
10343;SDS011;5217;43.960;10.954;2024-02-21T00:24:42;5.03;;;4.53;;
10343;SDS011;5217;43.960;10.954;2024-02-21T00:27:11;4.90;;;4.47;;
10343;SDS011;5217;43.960;10.954;2024-02-21T00:29:39;4.73;;;4.33;;
10343;SDS011;5217;43.960;10.954;2024-02-21T00:32:07;5.03;;;4.33;;
10343;SDS011;5217;43.960;10.954;2024-02-21T00:34:36;4.90;;;4.50;;
10343;SDS011;5217;43.960;10.954;2024-02-21T00:37:06;5.47;;;4.40;;
10343;SDS011;5217;43.960;10.954;2024-02-21T00:39:34;5.20;;;4.70;;
10343;SDS011;5217;43.960;10.954;2024-02-21T00:42:03;5.90;;;5.13;;
10343;SDS011;5217;43.960;10.954;2024-02-21T00:44:34;5.70;;;5.10;;
10343;SDS011;5217;43.960;10.954;2024-02-21T00:47:02;4.60;;;4.20;;
10343;SDS011;5217;43.960;10.954;2024-02-21T00:49:31;4.80;;;4.37;;
10343;SDS011;5217;43.960;10.954;2024-02-21T00:51:59;4.23;;;3.83;;
10343;SDS011;5217;43.960;10.954;2024-02-21T00:54:29;4.40;;;4.00;;
10343;SDS011;5217;43.960;10.954;2024-02-21T00:57:13;4.47;;;4.07;;
10343;SDS011;5217;43.960;10.954;2024-02-21T00:59:41;4.43;;;4.03;;
10343;SDS011;5217;43.960;10.954;2024-02-21T01:02:09;5.23;;;4.20;;
10343;SDS011;5217;43.960;10.954;2024-02-21T01:04:38;4.50;;;4.10;;
10343;SDS011;5217;43.960;10.954;2024-02-21T01:07:06;4.33;;;3.97;;
10343;SDS011;5217;43.960;10.954;2024-02-21T01:09:36;5.03;;;4.53;;
10343;SDS011;5217;43.960;10.954;2024-02-21T01:12:05;4.60;;;4.20;;
10343;SDS011;5217;43.960;10.954;2024-02-21T01:14:33;4.23;;;3.83;;
10343;SDS011;5217;43.960;10.954;2024-02-21T01:17:02;3.83;;;3.53;;
10343;SDS011;5217;43.960;10.954;2024-02-21T01:19:33;3.87;;;3.20;;
10343;SDS011;5217;43.960;10.954;2024-02-21T01:22:01;3.40;;;3.10;;
10343;SDS011;5217;43.960;10.954;2024-02-21T01:24:30;3.50;;;3.20;;
10343;SDS011;5217;43.960;10.954;2024-02-21T01:26:59;3.80;;;3.50;;
10343;SDS011;5217;43.960;10.954;2024-02-21T01:29:28;3.33;;;3.03;;
10343;SDS011;5217;43.960;10.954;2024-02-21T01:31:56;3.67;;;3.23;;
10343;SDS011;5217;43.960;10.954;2024-02-21T01:34:25;3.10;;;2.80;;
10343;SDS011;5217;43.960;10.954;2024-02-21T01:36:57;5.37;;;3.13;;
10343;SDS011;5217;43.960;10.954;2024-02-21T01:39:31;2.70;;;2.50;;
10343;SDS011;5217;43.960;10.954;2024-02-21T01:42:00;3.13;;;2.70;;
10343;SDS011;5217;43.960;10.954;2024-02-21T01:44:29;2.70;;;2.50;;
10343;SDS011;5217;43.960;10.954;2024-02-21T01:46:58;2.50;;;2.30;;
10343;SDS011;5217;43.960;10.954;2024-02-21T01:49:26;2.80;;;2.50;;
10343;SDS011;5217;43.960;10.954;2024-02-21T01:51:55;3.00;;;2.30;;
10343;SDS011;5217;43.960;10.954;2024-02-21T01:54:24;3.23;;;2.63;;
10343;SDS011;5217;43.960;10.954;2024-02-21T01:56:55;2.37;;;2.10;;
10343;SDS011;5217;43.960;10.954;2024-02-21T01:59:25;2.60;;;2.40;;
10343;SDS011;5217;43.960;10.954;2024-02-21T02:01:55;2.40;;;2.20;;
10343;SDS011;5217;43.960;10.954;2024-02-21T02:04:24;2.60;;;2.40;;
10343;SDS011;5217;43.960;10.954;2024-02-21T02:06:54;2.23;;;2.10;;
10343;SDS011;5217;43.960;10.954;2024-02-21T02:09:23;2.33;;;2.13;;
10343;SDS011;5217;43.960;10.954;2024-02-21T02:11:52;2.87;;;2.67;;
10343;SDS011;5217;43.960;10.954;2024-02-21T02:14:20;2.63;;;2.40;;
10343;SDS011;5217;43.960;10.954;2024-02-21T02:16:50;2.73;;;2.53;;
10343;SDS011;5217;43.960;10.954;2024-02-21T02:19:18;2.60;;;2.40;;
10343;SDS011;5217;43.960;10.954;2024-02-21T02:21:49;2.50;;;2.30;;
10343;SDS011;5217;43.960;10.954;2024-02-21T02:24:24;3.07;;;2.77;;
10343;SDS011;5217;43.960;10.954;2024-02-21T02:26:53;3.33;;;2.80;;
10343;SDS011;5217;43.960;10.954;2024-02-21T02:29:21;4.20;;;3.10;;
10343;SDS011;5217;43.960;10.954;2024-02-21T02:31:50;2.77;;;2.57;;
10343;SDS011;5217;43.960;10.954;2024-02-21T02:34:18;2.77;;;2.50;;
10343;SDS011;5217;43.960;10.954;2024-02-21T02:36:47;2.70;;;2.50;;
10343;SDS011;5217;43.960;10.954;2024-02-21T02:39:15;2.67;;;2.47;;
10343;SDS011;5217;43.960;10.954;2024-02-21T02:41:45;2.40;;;2.20;;
10343;SDS011;5217;43.960;10.954;2024-02-21T02:44:14;2.70;;;2.50;;
10343;SDS011;5217;43.960;10.954;2024-02-21T02:46:43;4.33;;;2.40;;
10343;SDS011;5217;43.960;10.954;2024-02-21T02:49:14;2.30;;;2.10;;
10343;SDS011;5217;43.960;10.954;2024-02-21T02:51:42;2.40;;;2.20;;
10343;SDS011;5217;43.960;10.954;2024-02-21T02:54:12;2.30;;;2.10;;
10343;SDS011;5217;43.960;10.954;2024-02-21T02:56:40;2.27;;;2.07;;
10343;SDS011;5217;43.960;10.954;2024-02-21T02:59:10;2.33;;;2.13;;
10343;SDS011;5217;43.960;10.954;2024-02-21T03:01:38;2.30;;;2.10;;
10343;SDS011;5217;43.960;10.954;2024-02-21T03:04:07;2.40;;;2.20;;
10343;SDS011;5217;43.960;10.954;2024-02-21T03:06:35;2.73;;;2.23;;
10343;SDS011;5217;43.960;10.954;2024-02-21T03:09:03;2.20;;;2.00;;
10343;SDS011;5217;43.960;10.954;2024-02-21T03:11:35;2.57;;;2.20;;
10343;SDS011;5217;43.960;10.954;2024-02-21T03:14:07;2.23;;;2.03;;
10343;SDS011;5217;43.960;10.954;2024-02-21T03:16:37;2.40;;;2.20;;
10343;SDS011;5217;43.960;10.954;2024-02-21T03:19:06;1.90;;;1.80;;
10343;SDS011;5217;43.960;10.954;2024-02-21T03:21:34;1.90;;;1.80;;
10343;SDS011;5217;43.960;10.954;2024-02-21T03:24:03;2.23;;;2.00;;
10343;SDS011;5217;43.960;10.954;2024-02-21T03:26:32;2.23;;;1.80;;
10343;SDS011;5217;43.960;10.954;2024-02-21T03:29:00;2.27;;;2.07;;
10343;SDS011;5217;43.960;10.954;2024-02-21T03:31:30;2.20;;;2.10;;
10343;SDS011;5217;43.960;10.954;2024-02-21T03:33:59;2.27;;;2.07;;
10343;SDS011;5217;43.960;10.954;2024-02-21T03:36:27;2.63;;;1.93;;
10343;SDS011;5217;43.960;10.954;2024-02-21T03:38:56;2.80;;;2.00;;
10343;SDS011;5217;43.960;10.954;2024-02-21T03:41:24;2.00;;;1.90;;
10343;SDS011;5217;43.960;10.954;2024-02-21T03:43:53;1.97;;;1.87;;
10343;SDS011;5217;43.960;10.954;2024-02-21T03:46:23;2.03;;;1.83;;
10343;SDS011;5217;43.960;10.954;2024-02-21T03:48:54;2.20;;;1.80;;
10343;SDS011;5217;43.960;10.954;2024-02-21T03:51:22;2.00;;;1.80;;
10343;SDS011;5217;43.960;10.954;2024-02-21T03:53:51;1.83;;;1.73;;
10343;SDS011;5217;43.960;10.954;2024-02-21T03:56:20;1.70;;;1.60;;
10343;SDS011;5217;43.960;10.954;2024-02-21T03:58:49;2.10;;;1.90;;
10343;SDS011;5217;43.960;10.954;2024-02-21T04:01:18;1.50;;;1.40;;
10343;SDS011;5217;43.960;10.954;2024-02-21T04:03:47;1.90;;;1.60;;
10343;SDS011;5217;43.960;10.954;2024-02-21T04:06:17;1.53;;;1.43;;
10343;SDS011;5217;43.960;10.954;2024-02-21T04:08:46;1.70;;;1.60;;
10343;SDS011;5217;43.960;10.954;2024-02-21T04:11:15;1.47;;;1.30;;
10343;SDS011;5217;43.960;10.954;2024-02-21T04:13:44;1.57;;;1.47;;
10343;SDS011;5217;43.960;10.954;2024-02-21T04:16:15;2.00;;;1.60;;
10343;SDS011;5217;43.960;10.954;2024-02-21T04:18:44;1.70;;;1.60;;
10343;SDS011;5217;43.960;10.954;2024-02-21T04:21:14;1.90;;;1.70;;
10343;SDS011;5217;43.960;10.954;2024-02-21T04:23:45;2.13;;;1.70;;
10343;SDS011;5217;43.960;10.954;2024-02-21T04:26:14;1.80;;;1.70;;
10343;SDS011;5217;43.960;10.954;2024-02-21T04:28:44;2.07;;;1.63;;
10343;SDS011;5217;43.960;10.954;2024-02-21T04:31:13;1.77;;;1.67;;
10343;SDS011;5217;43.960;10.954;2024-02-21T04:33:42;2.37;;;1.60;;
10343;SDS011;5217;43.960;10.954;2024-02-21T04:36:11;1.70;;;1.60;;
10343;SDS011;5217;43.960;10.954;2024-02-21T04:38:39;1.60;;;1.50;;
10343;SDS011;5217;43.960;10.954;2024-02-21T04:41:09;1.70;;;1.60;;
10343;SDS011;5217;43.960;10.954;2024-02-21T04:43:38;1.47;;;1.37;;
10343;SDS011;5217;43.960;10.954;2024-02-21T04:46:07;1.60;;;1.50;;
10343;SDS011;5217;43.960;10.954;2024-02-21T04:48:36;1.60;;;1.50;;
10343;SDS011;5217;43.960;10.954;2024-02-21T04:51:05;1.60;;;1.50;;
10343;SDS011;5217;43.960;10.954;2024-02-21T04:53:33;1.80;;;1.60;;
10343;SDS011;5217;43.960;10.954;2024-02-21T04:56:02;1.70;;;1.60;;
10343;SDS011;5217;43.960;10.954;2024-02-21T04:58:32;1.80;;;1.70;;
10343;SDS011;5217;43.960;10.954;2024-02-21T05:01:05;2.00;;;1.90;;
10343;SDS011;5217;43.960;10.954;2024-02-21T05:03:34;2.17;;;1.90;;
10343;SDS011;5217;43.960;10.954;2024-02-21T05:06:03;1.70;;;1.60;;
10343;SDS011;5217;43.960;10.954;2024-02-21T05:08:32;1.60;;;1.50;;
10343;SDS011;5217;43.960;10.954;2024-02-21T05:11:01;1.70;;;1.60;;
10343;SDS011;5217;43.960;10.954;2024-02-21T05:13:30;1.77;;;1.50;;
10343;SDS011;5217;43.960;10.954;2024-02-21T05:16:00;1.80;;;1.70;;
10343;SDS011;5217;43.960;10.954;2024-02-21T05:18:29;1.50;;;1.40;;
10343;SDS011;5217;43.960;10.954;2024-02-21T05:20:58;1.90;;;1.80;;
10343;SDS011;5217;43.960;10.954;2024-02-21T05:23:27;1.60;;;1.40;;
10343;SDS011;5217;43.960;10.954;2024-02-21T05:25:56;1.70;;;1.60;;
10343;SDS011;5217;43.960;10.954;2024-02-21T05:28:24;1.60;;;1.50;;
10343;SDS011;5217;43.960;10.954;2024-02-21T05:30:53;3.17;;;1.90;;
10343;SDS011;5217;43.960;10.954;2024-02-21T05:33:23;2.07;;;1.93;;
10343;SDS011;5217;43.960;10.954;2024-02-21T05:35:52;2.10;;;1.90;;
10343;SDS011;5217;43.960;10.954;2024-02-21T05:38:21;1.93;;;1.73;;
10343;SDS011;5217;43.960;10.954;2024-02-21T05:40:49;1.60;;;1.50;;
10343;SDS011;5217;43.960;10.954;2024-02-21T05:43:18;1.87;;;1.60;;
10343;SDS011;5217;43.960;10.954;2024-02-21T05:45:47;1.90;;;1.70;;
10343;SDS011;5217;43.960;10.954;2024-02-21T05:48:15;2.03;;;1.90;;
10343;SDS011;5217;43.960;10.954;2024-02-21T05:50:45;1.93;;;1.60;;
10343;SDS011;5217;43.960;10.954;2024-02-21T05:53:14;2.30;;;2.20;;
10343;SDS011;5217;43.960;10.954;2024-02-21T05:55:42;1.83;;;1.70;;
10343;SDS011;5217;43.960;10.954;2024-02-21T05:58:11;2.00;;;1.77;;
10343;SDS011;5217;43.960;10.954;2024-02-21T06:00:40;3.20;;;2.00;;
10343;SDS011;5217;43.960;10.954;2024-02-21T06:03:08;2.97;;;2.50;;
10343;SDS011;5217;43.960;10.954;2024-02-21T06:05:37;2.80;;;2.50;;
10343;SDS011;5217;43.960;10.954;2024-02-21T06:08:07;3.77;;;2.83;;
10343;SDS011;5217;43.960;10.954;2024-02-21T06:10:35;3.17;;;2.90;;
10343;SDS011;5217;43.960;10.954;2024-02-21T06:13:04;3.47;;;2.30;;
10343;SDS011;5217;43.960;10.954;2024-02-21T06:15:32;2.80;;;2.60;;
10343;SDS011;5217;43.960;10.954;2024-02-21T06:18:01;3.00;;;2.70;;
10343;SDS011;5217;43.960;10.954;2024-02-21T06:20:29;2.80;;;2.60;;
10343;SDS011;5217;43.960;10.954;2024-02-21T06:22:58;2.67;;;2.47;;
10343;SDS011;5217;43.960;10.954;2024-02-21T06:25:28;4.57;;;2.70;;
10343;SDS011;5217;43.960;10.954;2024-02-21T06:27:56;3.20;;;2.80;;
10343;SDS011;5217;43.960;10.954;2024-02-21T06:30:25;2.67;;;2.47;;
10343;SDS011;5217;43.960;10.954;2024-02-21T06:32:53;3.67;;;3.00;;
10343;SDS011;5217;43.960;10.954;2024-02-21T06:35:22;5.03;;;3.80;;
10343;SDS011;5217;43.960;10.954;2024-02-21T06:37:52;4.40;;;4.00;;
10343;SDS011;5217;43.960;10.954;2024-02-21T06:40:20;4.20;;;3.80;;
10343;SDS011;5217;43.960;10.954;2024-02-21T06:42:51;3.13;;;2.80;;
10343;SDS011;5217;43.960;10.954;2024-02-21T06:45:19;3.20;;;2.90;;
10343;SDS011;5217;43.960;10.954;2024-02-21T06:47:48;3.97;;;2.90;;
10343;SDS011;5217;43.960;10.954;2024-02-21T06:50:16;3.53;;;3.23;;
10343;SDS011;5217;43.960;10.954;2024-02-21T06:52:45;3.33;;;3.00;;
10343;SDS011;5217;43.960;10.954;2024-02-21T06:55:13;3.10;;;2.67;;
10343;SDS011;5217;43.960;10.954;2024-02-21T06:57:43;4.83;;;2.90;;
10343;SDS011;5217;43.960;10.954;2024-02-21T07:00:13;3.40;;;3.10;;
10343;SDS011;5217;43.960;10.954;2024-02-21T07:02:42;2.93;;;2.63;;
10343;SDS011;5217;43.960;10.954;2024-02-21T07:05:11;2.73;;;2.53;;
10343;SDS011;5217;43.960;10.954;2024-02-21T07:07:39;3.60;;;3.00;;
10343;SDS011;5217;43.960;10.954;2024-02-21T07:10:08;6.43;;;5.93;;
10343;SDS011;5217;43.960;10.954;2024-02-21T07:12:37;15.67;;;14.37;;
10343;SDS011;5217;43.960;10.954;2024-02-21T07:15:08;19.77;;;17.93;;
10343;SDS011;5217;43.960;10.954;2024-02-21T07:17:38;18.97;;;17.40;;
10343;SDS011;5217;43.960;10.954;2024-02-21T07:20:07;10.63;;;9.63;;
10343;SDS011;5217;43.960;10.954;2024-02-21T07:22:36;9.00;;;7.00;;
10343;SDS011;5217;43.960;10.954;2024-02-21T07:25:05;7.47;;;6.67;;
10343;SDS011;5217;43.960;10.954;2024-02-21T07:27:34;7.60;;;6.90;;
10343;SDS011;5217;43.960;10.954;2024-02-21T07:30:04;6.83;;;6.00;;
10343;SDS011;5217;43.960;10.954;2024-02-21T07:32:33;8.03;;;6.30;;
10343;SDS011;5217;43.960;10.954;2024-02-21T07:35:04;7.33;;;6.67;;
10343;SDS011;5217;43.960;10.954;2024-02-21T07:37:37;9.03;;;7.30;;
10343;SDS011;5217;43.960;10.954;2024-02-21T07:40:11;8.50;;;7.40;;
10343;SDS011;5217;43.960;10.954;2024-02-21T07:42:41;8.87;;;8.07;;
10343;SDS011;5217;43.960;10.954;2024-02-21T07:45:12;8.97;;;8.07;;
10343;SDS011;5217;43.960;10.954;2024-02-21T07:47:40;7.97;;;7.23;;
10343;SDS011;5217;43.960;10.954;2024-02-21T07:50:10;8.13;;;7.33;;
10343;SDS011;5217;43.960;10.954;2024-02-21T07:52:38;9.13;;;8.23;;
10343;SDS011;5217;43.960;10.954;2024-02-21T07:55:07;13.17;;;11.87;;
10343;SDS011;5217;43.960;10.954;2024-02-21T07:57:37;12.83;;;11.57;;
10343;SDS011;5217;43.960;10.954;2024-02-21T08:00:05;12.70;;;11.43;;
10343;SDS011;5217;43.960;10.954;2024-02-21T08:02:36;13.27;;;11.83;;
10343;SDS011;5217;43.960;10.954;2024-02-21T08:05:04;12.43;;;11.30;;
10343;SDS011;5217;43.960;10.954;2024-02-21T08:07:34;12.00;;;10.90;;
10343;SDS011;5217;43.960;10.954;2024-02-21T08:10:04;13.37;;;12.17;;
10343;SDS011;5217;43.960;10.954;2024-02-21T08:12:34;14.40;;;12.97;;
10343;SDS011;5217;43.960;10.954;2024-02-21T08:15:04;15.17;;;13.67;;
10343;SDS011;5217;43.960;10.954;2024-02-21T08:17:34;14.43;;;13.13;;
10343;SDS011;5217;43.960;10.954;2024-02-21T08:20:03;15.93;;;14.47;;
10343;SDS011;5217;43.960;10.954;2024-02-21T08:22:32;15.07;;;13.63;;
10343;SDS011;5217;43.960;10.954;2024-02-21T08:25:02;13.83;;;12.53;;
10343;SDS011;5217;43.960;10.954;2024-02-21T08:27:32;12.37;;;11.17;;
10343;SDS011;5217;43.960;10.954;2024-02-21T08:30:00;12.73;;;11.47;;
10343;SDS011;5217;43.960;10.954;2024-02-21T08:32:29;13.43;;;12.13;;
10343;SDS011;5217;43.960;10.954;2024-02-21T08:34:57;13.37;;;12.17;;
10343;SDS011;5217;43.960;10.954;2024-02-21T08:37:26;13.70;;;12.50;;
10343;SDS011;5217;43.960;10.954;2024-02-21T08:39:55;13.83;;;12.53;;
10343;SDS011;5217;43.960;10.954;2024-02-21T08:42:25;14.27;;;12.87;;
10343;SDS011;5217;43.960;10.954;2024-02-21T08:44:53;13.40;;;12.20;;
10343;SDS011;5217;43.960;10.954;2024-02-21T08:47:22;13.93;;;12.63;;
10343;SDS011;5217;43.960;10.954;2024-02-21T08:49:50;13.03;;;11.87;;
10343;SDS011;5217;43.960;10.954;2024-02-21T08:52:19;12.50;;;11.47;;
10343;SDS011;5217;43.960;10.954;2024-02-21T08:54:47;13.50;;;12.30;;
10343;SDS011;5217;43.960;10.954;2024-02-21T08:57:17;14.30;;;12.90;;
10343;SDS011;5217;43.960;10.954;2024-02-21T08:59:47;13.83;;;12.63;;
10343;SDS011;5217;43.960;10.954;2024-02-21T09:02:15;13.47;;;12.27;;
10343;SDS011;5217;43.960;10.954;2024-02-21T09:04:44;13.68;;;12.43;;
10343;SDS011;5217;43.960;10.954;2024-02-21T09:07:12;13.43;;;12.10;;
10343;SDS011;5217;43.960;10.954;2024-02-21T09:09:41;15.57;;;14.07;;
10343;SDS011;5217;43.960;10.954;2024-02-21T09:12:09;13.60;;;12.30;;
10343;SDS011;5217;43.960;10.954;2024-02-21T09:14:37;11.52;;;10.35;;
10343;SDS011;5217;43.960;10.954;2024-02-21T09:17:07;11.05;;;10.02;;
10343;SDS011;5217;43.960;10.954;2024-02-21T09:19:36;12.05;;;10.95;;
10343;SDS011;5217;43.960;10.954;2024-02-21T09:22:04;14.13;;;12.73;;
10343;SDS011;5217;43.960;10.954;2024-02-21T09:24:33;26.75;;;23.95;;
10343;SDS011;5217;43.960;10.954;2024-02-21T09:27:01;27.92;;;25.23;;
10343;SDS011;5217;43.960;10.954;2024-02-21T09:29:30;24.92;;;22.52;;
10343;SDS011;5217;43.960;10.954;2024-02-21T09:31:59;28.73;;;25.85;;
10343;SDS011;5217;43.960;10.954;2024-02-21T09:34:30;23.77;;;21.48;;
10343;SDS011;5217;43.960;10.954;2024-02-21T09:36:59;19.75;;;17.77;;
10343;SDS011;5217;43.960;10.954;2024-02-21T09:39:28;20.17;;;18.17;;
10343;SDS011;5217;43.960;10.954;2024-02-21T09:41:58;23.88;;;21.58;;
10343;SDS011;5217;43.960;10.954;2024-02-21T09:44:32;22.52;;;20.35;;
10343;SDS011;5217;43.960;10.954;2024-02-21T09:47:06;19.50;;;17.42;;
10343;SDS011;5217;43.960;10.954;2024-02-21T09:49:39;16.83;;;15.32;;
10343;SDS011;5217;43.960;10.954;2024-02-21T09:52:10;15.80;;;14.30;;
10343;SDS011;5217;43.960;10.954;2024-02-21T09:54:41;15.02;;;13.52;;
10343;SDS011;5217;43.960;10.954;2024-02-21T09:57:11;14.52;;;13.20;;
10343;SDS011;5217;43.960;10.954;2024-02-21T09:59:40;12.10;;;11.10;;
10343;SDS011;5217;43.960;10.954;2024-02-21T10:02:09;13.07;;;11.88;;
10343;SDS011;5217;43.960;10.954;2024-02-21T10:04:40;12.48;;;11.18;;
10343;SDS011;5217;43.960;10.954;2024-02-21T10:07:09;11.43;;;10.43;;
10343;SDS011;5217;43.960;10.954;2024-02-21T10:09:38;12.13;;;11.00;;
10343;SDS011;5217;43.960;10.954;2024-02-21T10:12:09;10.57;;;9.68;;
10343;SDS011;5217;43.960;10.954;2024-02-21T10:14:40;11.35;;;10.18;;
10343;SDS011;5217;43.960;10.954;2024-02-21T10:17:15;10.02;;;9.07;;
10343;SDS011;5217;43.960;10.954;2024-02-21T10:19:47;10.25;;;9.35;;
10343;SDS011;5217;43.960;10.954;2024-02-21T10:22:17;10.93;;;9.77;;
10343;SDS011;5217;43.960;10.954;2024-02-21T10:24:47;10.10;;;9.10;;
10343;SDS011;5217;43.960;10.954;2024-02-21T10:27:15;11.07;;;8.88;;
10343;SDS011;5217;43.960;10.954;2024-02-21T10:29:48;10.27;;;9.27;;
10343;SDS011;5217;43.960;10.954;2024-02-21T10:32:18;9.73;;;8.93;;
10343;SDS011;5217;43.960;10.954;2024-02-21T10:34:48;9.00;;;8.20;;
10343;SDS011;5217;43.960;10.954;2024-02-21T10:37:18;10.02;;;9.00;;
10343;SDS011;5217;43.960;10.954;2024-02-21T10:39:49;9.15;;;8.32;;
10343;SDS011;5217;43.960;10.954;2024-02-21T10:42:20;8.18;;;7.47;;
10343;SDS011;5217;43.960;10.954;2024-02-21T10:44:50;7.80;;;7.10;;
10343;SDS011;5217;43.960;10.954;2024-02-21T10:47:19;7.25;;;6.55;;
10343;SDS011;5217;43.960;10.954;2024-02-21T10:49:57;8.25;;;7.45;;
10343;SDS011;5217;43.960;10.954;2024-02-21T10:52:32;7.88;;;7.18;;
10343;SDS011;5217;43.960;10.954;2024-02-21T10:55:15;8.35;;;6.35;;
10343;SDS011;5217;43.960;10.954;2024-02-21T10:57:51;6.22;;;5.70;;
10343;SDS011;5217;43.960;10.954;2024-02-21T11:00:22;6.40;;;5.80;;
10343;SDS011;5217;43.960;10.954;2024-02-21T11:02:56;5.30;;;4.80;;
10343;SDS011;5217;43.960;10.954;2024-02-21T11:05:27;6.20;;;5.60;;
10343;SDS011;5217;43.960;10.954;2024-02-21T11:07:56;6.03;;;5.53;;
10343;SDS011;5217;43.960;10.954;2024-02-21T11:10:25;10.50;;;9.60;;
10343;SDS011;5217;43.960;10.954;2024-02-21T11:13:04;7.53;;;6.93;;
10343;SDS011;5217;43.960;10.954;2024-02-21T11:15:36;5.97;;;5.47;;
10343;SDS011;5217;43.960;10.954;2024-02-21T11:18:05;5.18;;;4.68;;
10343;SDS011;5217;43.960;10.954;2024-02-21T11:20:35;4.90;;;4.50;;
10343;SDS011;5217;43.960;10.954;2024-02-21T11:23:05;4.72;;;4.32;;
10343;SDS011;5217;43.960;10.954;2024-02-21T11:25:34;4.85;;;4.45;;
10343;SDS011;5217;43.960;10.954;2024-02-21T11:28:02;4.90;;;4.50;;
10343;SDS011;5217;43.960;10.954;2024-02-21T11:30:35;5.32;;;4.82;;
10343;SDS011;5217;43.960;10.954;2024-02-21T11:33:05;5.47;;;4.97;;
10343;SDS011;5217;43.960;10.954;2024-02-21T11:35:36;4.95;;;4.55;;
10343;SDS011;5217;43.960;10.954;2024-02-21T11:38:08;5.32;;;4.82;;
10343;SDS011;5217;43.960;10.954;2024-02-21T11:40:41;5.10;;;4.55;;
10343;SDS011;5217;43.960;10.954;2024-02-21T11:43:12;4.32;;;3.92;;
10343;SDS011;5217;43.960;10.954;2024-02-21T11:45:40;5.28;;;3.85;;
10343;SDS011;5217;43.960;10.954;2024-02-21T11:48:09;8.18;;;4.50;;
10343;SDS011;5217;43.960;10.954;2024-02-21T11:50:39;5.43;;;4.68;;
10343;SDS011;5217;43.960;10.954;2024-02-21T11:53:07;5.78;;;5.18;;
10343;SDS011;5217;43.960;10.954;2024-02-21T11:55:36;7.03;;;5.97;;
10343;SDS011;5217;43.960;10.954;2024-02-21T11:58:05;7.30;;;6.60;;
10343;SDS011;5217;43.960;10.954;2024-02-21T12:00:33;8.23;;;6.55;;
10343;SDS011;5217;43.960;10.954;2024-02-21T12:03:02;7.55;;;6.40;;
10343;SDS011;5217;43.960;10.954;2024-02-21T12:05:32;7.95;;;6.55;;
10343;SDS011;5217;43.960;10.954;2024-02-21T12:08:03;7.45;;;6.75;;
10343;SDS011;5217;43.960;10.954;2024-02-21T12:10:32;8.55;;;7.05;;
10343;SDS011;5217;43.960;10.954;2024-02-21T12:13:05;9.73;;;6.63;;
10343;SDS011;5217;43.960;10.954;2024-02-21T12:15:35;7.07;;;6.35;;
10343;SDS011;5217;43.960;10.954;2024-02-21T12:18:03;6.40;;;5.80;;
10343;SDS011;5217;43.960;10.954;2024-02-21T12:20:33;5.57;;;5.07;;
10343;SDS011;5217;43.960;10.954;2024-02-21T12:23:08;5.60;;;5.10;;
10343;SDS011;5217;43.960;10.954;2024-02-21T12:25:37;5.40;;;4.90;;
10343;SDS011;5217;43.960;10.954;2024-02-21T12:28:07;5.50;;;5.00;;
10343;SDS011;5217;43.960;10.954;2024-02-21T12:30:36;5.88;;;4.65;;
10343;SDS011;5217;43.960;10.954;2024-02-21T12:33:07;4.70;;;4.30;;
10343;SDS011;5217;43.960;10.954;2024-02-21T12:35:36;5.18;;;4.68;;
10343;SDS011;5217;43.960;10.954;2024-02-21T12:38:06;5.18;;;4.68;;
10343;SDS011;5217;43.960;10.954;2024-02-21T12:40:35;5.80;;;4.68;;
10343;SDS011;5217;43.960;10.954;2024-02-21T12:43:04;4.57;;;4.18;;
10343;SDS011;5217;43.960;10.954;2024-02-21T12:45:32;4.60;;;4.20;;
10343;SDS011;5217;43.960;10.954;2024-02-21T12:48:01;4.47;;;4.07;;
10343;SDS011;5217;43.960;10.954;2024-02-21T12:50:31;4.53;;;4.10;;
10343;SDS011;5217;43.960;10.954;2024-02-21T12:52:59;4.78;;;4.38;;
10343;SDS011;5217;43.960;10.954;2024-02-21T12:55:33;4.57;;;4.18;;
10343;SDS011;5217;43.960;10.954;2024-02-21T12:58:03;4.80;;;4.07;;
10343;SDS011;5217;43.960;10.954;2024-02-21T13:00:33;5.80;;;4.32;;
10343;SDS011;5217;43.960;10.954;2024-02-21T13:03:02;5.05;;;4.30;;
10343;SDS011;5217;43.960;10.954;2024-02-21T13:05:31;4.10;;;3.70;;
10343;SDS011;5217;43.960;10.954;2024-02-21T13:08:00;4.60;;;4.20;;
10343;SDS011;5217;43.960;10.954;2024-02-21T13:10:29;4.72;;;3.83;;
10343;SDS011;5217;43.960;10.954;2024-02-21T13:12:59;5.20;;;4.45;;
10343;SDS011;5217;43.960;10.954;2024-02-21T13:15:27;4.45;;;4.05;;
10343;SDS011;5217;43.960;10.954;2024-02-21T13:17:56;4.82;;;4.25;;
10343;SDS011;5217;43.960;10.954;2024-02-21T13:20:25;4.00;;;3.60;;
10343;SDS011;5217;43.960;10.954;2024-02-21T13:22:55;4.32;;;3.53;;
10343;SDS011;5217;43.960;10.954;2024-02-21T13:25:23;5.03;;;3.53;;
10343;SDS011;5217;43.960;10.954;2024-02-21T13:27:52;4.07;;;3.67;;
10343;SDS011;5217;43.960;10.954;2024-02-21T13:30:21;4.07;;;3.67;;
10343;SDS011;5217;43.960;10.954;2024-02-21T13:32:51;3.85;;;3.45;;
10343;SDS011;5217;43.960;10.954;2024-02-21T13:35:21;4.07;;;3.67;;
10343;SDS011;5217;43.960;10.954;2024-02-21T13:37:49;4.07;;;3.53;;
10343;SDS011;5217;43.960;10.954;2024-02-21T13:40:18;3.72;;;3.42;;
10343;SDS011;5217;43.960;10.954;2024-02-21T13:42:46;7.05;;;4.30;;
10343;SDS011;5217;43.960;10.954;2024-02-21T13:45:16;8.15;;;7.00;;
10343;SDS011;5217;43.960;10.954;2024-02-21T13:47:47;5.13;;;4.63;;
10343;SDS011;5217;43.960;10.954;2024-02-21T13:50:16;5.47;;;3.55;;
10343;SDS011;5217;43.960;10.954;2024-02-21T13:52:46;3.80;;;3.50;;
10343;SDS011;5217;43.960;10.954;2024-02-21T13:55:14;3.83;;;3.53;;
10343;SDS011;5217;43.960;10.954;2024-02-21T13:57:44;3.92;;;3.53;;
10343;SDS011;5217;43.960;10.954;2024-02-21T14:00:13;4.72;;;3.50;;
10343;SDS011;5217;43.960;10.954;2024-02-21T14:02:42;4.00;;;3.60;;
10343;SDS011;5217;43.960;10.954;2024-02-21T14:05:12;4.40;;;4.00;;
10343;SDS011;5217;43.960;10.954;2024-02-21T14:07:41;4.30;;;3.90;;
10343;SDS011;5217;43.960;10.954;2024-02-21T14:10:09;5.22;;;4.47;;
10343;SDS011;5217;43.960;10.954;2024-02-21T14:12:38;7.18;;;4.40;;
10343;SDS011;5217;43.960;10.954;2024-02-21T14:15:07;4.78;;;3.80;;
10343;SDS011;5217;43.960;10.954;2024-02-21T14:17:35;4.57;;;4.18;;
10343;SDS011;5217;43.960;10.954;2024-02-21T14:20:06;4.68;;;3.58;;
10343;SDS011;5217;43.960;10.954;2024-02-21T14:22:38;4.13;;;3.72;;
10343;SDS011;5217;43.960;10.954;2024-02-21T14:25:07;4.07;;;3.67;;
10343;SDS011;5217;43.960;10.954;2024-02-21T14:27:36;3.97;;;3.40;;
10343;SDS011;5217;43.960;10.954;2024-02-21T14:30:05;4.18;;;3.78;;
10343;SDS011;5217;43.960;10.954;2024-02-21T14:32:37;4.65;;;3.72;;
10343;SDS011;5217;43.960;10.954;2024-02-21T14:35:08;4.78;;;3.20;;
10343;SDS011;5217;43.960;10.954;2024-02-21T14:37:36;4.13;;;3.35;;
10343;SDS011;5217;43.960;10.954;2024-02-21T14:40:07;4.05;;;3.60;;
10343;SDS011;5217;43.960;10.954;2024-02-21T14:42:35;4.53;;;3.38;;
10343;SDS011;5217;43.960;10.954;2024-02-21T14:45:04;3.75;;;3.40;;
10343;SDS011;5217;43.960;10.954;2024-02-21T14:47:33;4.05;;;3.50;;
10343;SDS011;5217;43.960;10.954;2024-02-21T14:50:02;3.80;;;3.50;;
10343;SDS011;5217;43.960;10.954;2024-02-21T14:52:32;3.90;;;3.45;;
10343;SDS011;5217;43.960;10.954;2024-02-21T14:55:04;4.25;;;3.65;;
10343;SDS011;5217;43.960;10.954;2024-02-21T14:57:33;6.03;;;3.42;;